createdAt,value
2023-02-16T00:04:01.627Z,43.72
2023-02-16T00:10:06.890Z,46.75
2023-02-16T00:16:13.838Z,51.65
2023-02-16T00:22:17.331Z,52.47
2023-02-16T00:28:22.557Z,54.20
2023-02-16T00:34:30.239Z,54.42
2023-02-16T00:40:33.697Z,51.38
2023-02-16T00:46:38.544Z,50.70
2023-02-16T00:52:43.293Z,46.33
2023-02-16T00:58:46.843Z,46.55
2023-02-16T01:04:51.931Z,47.97
2023-02-16T01:11:11.235Z,47.88
2023-02-16T01:17:14.869Z,43.55
2023-02-16T01:23:19.631Z,47.83
2023-02-16T01:29:23.689Z,43.67
2023-02-16T01:35:30.710Z,47.10
2023-02-16T01:41:46.258Z,47.17
2023-02-16T01:47:51.759Z,47.83
2023-02-16T01:53:57.039Z,48.13
2023-02-16T02:00:14.235Z,46.03
2023-02-16T02:06:19.829Z,47.20
2023-02-16T02:12:26.159Z,49.22
2023-02-16T02:18:30.923Z,47.63
2023-02-16T02:24:46.867Z,47.95
2023-02-16T02:30:55.609Z,49.53
2023-02-16T02:37:05.283Z,50.15
2023-02-16T02:43:12.095Z,48.20
2023-02-16T02:49:17.241Z,49.60
2023-02-16T02:55:38.297Z,49.80
2023-02-16T03:01:44.444Z,50.35
2023-02-16T03:07:50.691Z,46.72
2023-02-16T03:13:56.993Z,49.00
2023-02-16T03:20:18.998Z,50.45
2023-02-16T03:26:42.065Z,48.60
2023-02-16T03:32:45.765Z,53.33
2023-02-16T03:38:49.303Z,49.22
2023-02-16T03:44:54.556Z,43.83
2023-02-16T03:50:58.013Z,52.15
2023-02-16T03:57:01.477Z,47.63
2023-02-16T04:03:06.557Z,50.10
2023-02-16T04:09:11.026Z,49.70
2023-02-16T04:15:15.855Z,44.15
2023-02-16T04:21:20.674Z,46.72
2023-02-16T04:27:24.055Z,52.15
2023-02-16T04:33:27.458Z,45.78
2023-02-16T04:39:32.191Z,50.50
2023-02-16T04:45:35.758Z,48.15
2023-02-16T04:51:39.944Z,47.72
2023-02-16T04:57:44.758Z,46.05
2023-02-16T05:03:48.491Z,43.70
2023-02-16T05:09:51.862Z,43.72
2023-02-16T05:15:57.031Z,41.17
2023-02-16T05:22:00.696Z,45.47
2023-02-16T05:28:04.177Z,42.60
2023-02-16T05:34:08.967Z,53.20
2023-02-16T05:40:13.231Z,46.15
2023-02-16T05:46:16.682Z,43.40
2023-02-16T05:52:21.704Z,43.65
2023-02-16T05:58:25.078Z,45.08
2023-02-16T06:04:28.639Z,43.63
2023-02-16T06:10:33.365Z,45.70
2023-02-16T06:16:37.494Z,44.00
2023-02-16T06:22:40.941Z,41.83
2023-02-16T06:28:45.992Z,42.13
2023-02-16T06:34:49.384Z,43.15
2023-02-16T06:40:53.498Z,42.85
2023-02-16T06:46:58.421Z,41.88
2023-02-16T06:53:01.808Z,39.38
2023-02-16T06:59:05.283Z,40.03
2023-02-16T07:05:10.523Z,38.65
2023-02-16T07:11:13.904Z,38.45
2023-02-16T07:17:17.361Z,43.30
2023-02-16T07:23:22.240Z,39.90
2023-02-16T07:29:25.599Z,41.80
2023-02-16T07:35:29.285Z,43.53
2023-02-16T07:41:34.125Z,37.63
2023-02-16T07:47:37.536Z,41.22
2023-02-16T07:53:40.910Z,40.60
2023-02-16T07:59:45.697Z,43.78
2023-02-16T08:05:49.080Z,38.28
2023-02-16T08:11:52.459Z,42.60
2023-02-16T08:17:57.718Z,35.65
2023-02-16T08:24:02.188Z,35.60
2023-02-16T08:30:06.190Z,35.28
2023-02-16T08:36:17.865Z,41.78
2023-02-16T08:42:21.325Z,31.45
2023-02-16T08:48:24.747Z,29.92
2023-02-16T08:54:30.986Z,35.55
2023-02-16T09:00:38.667Z,32.83
2023-02-16T09:06:44.141Z,35.45
2023-02-16T09:12:49.973Z,31.25
2023-02-16T09:18:54.184Z,35.38
2023-02-16T09:24:57.560Z,33.75
2023-02-16T09:31:02.599Z,34.13
2023-02-16T09:37:06.049Z,33.60
2023-02-16T09:43:12.231Z,31.00
2023-02-16T09:49:23.947Z,27.60
2023-02-16T09:55:30.607Z,35.95
2023-02-16T10:01:36.829Z,28.65
2023-02-16T10:07:46.680Z,25.13
2023-02-16T10:13:54.149Z,27.15
2023-02-16T10:19:59.386Z,28.70
2023-02-16T10:26:07.160Z,32.40
2023-02-16T10:32:16.704Z,34.53
2023-02-16T10:38:24.369Z,26.92
2023-02-16T10:44:32.910Z,23.92
2023-02-16T10:50:39.431Z,22.40
2023-02-16T10:56:54.354Z,21.63
2023-02-16T11:03:02.887Z,26.58
2023-02-16T11:09:06.765Z,30.40
2023-02-16T11:15:23.765Z,23.38
2023-02-16T11:21:42.450Z,22.45
2023-02-16T11:27:53.772Z,22.58
2023-02-16T11:33:58.192Z,16.70
2023-02-16T11:40:04.269Z,22.13
2023-02-16T11:46:13.495Z,18.55
2023-02-16T11:52:22.250Z,11.52
2023-02-16T11:58:26.369Z,14.27
2023-02-16T12:04:36.969Z,25.42
2023-02-16T12:10:41.293Z,27.13
2023-02-16T12:16:48.816Z,23.83
2023-02-16T12:22:59.441Z,16.08
2023-02-16T12:29:11.229Z,22.30
2023-02-16T12:35:21.876Z,23.88
2023-02-16T12:41:30.402Z,18.52
2023-02-16T12:47:37.102Z,22.90
2023-02-16T12:53:43.112Z,16.23
2023-02-16T12:59:49.713Z,17.50
2023-02-16T13:05:55.274Z,12.80
2023-02-16T13:12:02.391Z,16.45
2023-02-16T13:18:09.193Z,19.73
2023-02-16T13:24:16.813Z,21.33
2023-02-16T13:30:36.889Z,19.80
2023-02-16T13:36:55.326Z,22.38
2023-02-16T13:43:14.662Z,16.42
2023-02-16T13:49:31.311Z,17.88
2023-02-16T13:55:37.487Z,12.55
2023-02-16T14:01:44.083Z,13.07
2023-02-16T14:07:47.526Z,14.48
2023-02-16T14:13:52.380Z,12.40
2023-02-16T14:19:58.412Z,13.43
2023-02-16T14:26:06.551Z,10.45
2023-02-16T14:32:23.466Z,13.20
2023-02-16T14:38:30.568Z,13.65
2023-02-16T14:44:42.302Z,15.63
2023-02-16T14:50:54.238Z,16.77
2023-02-16T14:57:02.159Z,10.77
2023-02-16T15:03:16.987Z,11.95
2023-02-16T15:09:23.485Z,7.05
2023-02-16T15:15:31.499Z,7.60
2023-02-16T15:21:34.943Z,7.70
2023-02-16T15:27:38.324Z,7.75
2023-02-16T15:33:44.056Z,5.45
2023-02-16T15:40:12.133Z,6.72
2023-02-16T15:46:16.322Z,5.95
2023-02-16T15:52:22.955Z,6.30
2023-02-16T15:58:27.916Z,8.30
2023-02-16T16:04:32.501Z,9.98
2023-02-16T16:10:41.312Z,8.60
2023-02-16T16:16:46.019Z,8.83
2023-02-16T16:22:56.644Z,9.45
2023-02-16T16:29:01.959Z,8.15
2023-02-16T16:35:19.803Z,9.23
2023-02-16T16:41:28.077Z,6.00
2023-02-16T16:47:35.620Z,7.15
2023-02-16T16:53:43.774Z,8.25
2023-02-16T16:59:47.451Z,8.43
2023-02-16T17:05:52.474Z,8.13
2023-02-16T17:11:55.946Z,7.80
2023-02-16T17:17:59.612Z,7.03
2023-02-16T17:24:04.448Z,13.32
2023-02-16T17:30:08.459Z,8.23
2023-02-16T17:36:14.715Z,8.80
2023-02-16T17:42:19.521Z,10.38
2023-02-16T17:48:24.175Z,8.43
2023-02-16T17:54:27.598Z,8.70
2023-02-16T18:00:32.556Z,9.50
2023-02-16T18:06:35.967Z,9.40
2023-02-16T18:12:39.456Z,12.55
2023-02-16T18:18:44.252Z,8.25
2023-02-16T18:24:47.740Z,9.63
2023-02-16T18:30:51.284Z,7.10
2023-02-16T18:36:56.070Z,6.75
2023-02-16T18:42:59.834Z,5.25
2023-02-16T18:49:04.168Z,6.05
2023-02-16T18:55:09.395Z,4.32
2023-02-16T19:01:13.920Z,4.43
2023-02-16T19:07:17.338Z,5.03
2023-02-16T19:13:22.075Z,5.07
2023-02-16T19:19:25.492Z,4.40
2023-02-16T19:25:29.379Z,4.07
2023-02-16T19:31:35.477Z,3.80
2023-02-16T19:37:38.962Z,3.55
2023-02-16T19:43:42.685Z,3.33
2023-02-16T19:49:47.540Z,4.03
2023-02-16T19:55:52.387Z,4.93
2023-02-16T20:01:55.897Z,3.20
2023-02-16T20:08:00.730Z,3.35
2023-02-16T20:14:04.225Z,2.92
2023-02-16T20:20:08.211Z,3.95
2023-02-16T20:26:14.525Z,3.93
2023-02-16T20:32:18.044Z,2.83
2023-02-16T20:38:21.513Z,4.00
2023-02-16T20:44:26.344Z,3.28
2023-02-16T20:50:29.985Z,2.72
2023-02-16T20:56:33.665Z,3.38
2023-02-16T21:02:38.488Z,4.10
2023-02-16T21:08:42.031Z,2.90
2023-02-16T21:14:45.730Z,2.40
2023-02-16T21:20:51.360Z,3.50
2023-02-16T21:26:54.751Z,3.28
2023-02-16T21:32:58.167Z,2.45
2023-02-16T21:39:04.920Z,2.90
2023-02-16T21:45:14.943Z,3.33
2023-02-16T21:51:19.556Z,3.53
2023-02-16T21:57:26.511Z,3.60
2023-02-16T22:03:29.937Z,3.10
2023-02-16T22:09:33.371Z,3.70
2023-02-16T22:15:38.964Z,2.85
2023-02-16T22:21:43.450Z,5.20
2023-02-16T22:27:46.964Z,4.93
2023-02-16T22:33:56.291Z,6.40
2023-02-16T22:39:59.669Z,5.50
2023-02-16T22:46:06.530Z,4.70
2023-02-16T22:52:11.568Z,8.30
2023-02-16T22:58:15.531Z,6.05
2023-02-16T23:04:19.236Z,5.32
2023-02-16T23:10:24.071Z,5.53
2023-02-16T23:16:28.177Z,5.53
2023-02-16T23:22:31.744Z,4.85
2023-02-16T23:28:36.519Z,4.47
2023-02-16T23:34:39.899Z,4.28
2023-02-16T23:40:43.380Z,4.68
2023-02-16T23:46:48.228Z,5.55
2023-02-16T23:52:51.649Z,9.50
2023-02-16T23:58:57.934Z,7.55
